sensor_id;sensor_type;location;lat;lon;timestamp;pressure;altitude;pressure_sealevel;temperature;humidity
8398;BME280;4236;54.504;9.588;2022-09-21T00:00:44;102546.97;;;6.84;100.00
8398;BME280;4236;54.504;9.588;2022-09-21T00:03:13;102540.94;;;6.82;100.00
8398;BME280;4236;54.504;9.588;2022-09-21T00:05:42;102544.69;;;6.79;100.00
8398;BME280;4236;54.504;9.588;2022-09-21T00:08:11;102542.19;;;6.78;100.00
8398;BME280;4236;54.504;9.588;2022-09-21T00:10:40;102550.97;;;6.78;100.00
8398;BME280;4236;54.504;9.588;2022-09-21T00:13:10;102548.56;;;6.75;100.00
8398;BME280;4236;54.504;9.588;2022-09-21T00:15:39;102545.22;;;6.73;100.00
8398;BME280;4236;54.504;9.588;2022-09-21T00:18:08;102552.47;;;6.71;100.00
8398;BME280;4236;54.504;9.588;2022-09-21T00:20:40;102553.56;;;6.68;100.00
8398;BME280;4236;54.504;9.588;2022-09-21T00:23:08;102554.63;;;6.66;100.00
8398;BME280;4236;54.504;9.588;2022-09-21T00:25:36;102558.38;;;6.63;100.00
8398;BME280;4236;54.504;9.588;2022-09-21T00:28:05;102558.63;;;6.60;100.00
8398;BME280;4236;54.504;9.588;2022-09-21T00:30:33;102549.13;;;6.58;100.00
8398;BME280;4236;54.504;9.588;2022-09-21T00:33:00;102550.38;;;6.54;100.00
8398;BME280;4236;54.504;9.588;2022-09-21T00:35:28;102551.56;;;6.50;100.00
8398;BME280;4236;54.504;9.588;2022-09-21T00:37:59;102553.63;;;6.46;100.00
8398;BME280;4236;54.504;9.588;2022-09-21T00:40:27;102555.44;;;6.46;100.00
8398;BME280;4236;54.504;9.588;2022-09-21T00:43:13;102555.31;;;6.47;100.00
8398;BME280;4236;54.504;9.588;2022-09-21T00:45:41;102555.31;;;6.47;100.00
8398;BME280;4236;54.504;9.588;2022-09-21T00:48:09;102550.13;;;6.46;100.00
8398;BME280;4236;54.504;9.588;2022-09-21T00:50:42;102555.69;;;6.43;100.00
8398;BME280;4236;54.504;9.588;2022-09-21T00:53:12;102552.19;;;6.42;100.00
8398;BME280;4236;54.504;9.588;2022-09-21T00:55:43;102554.28;;;6.39;100.00
8398;BME280;4236;54.504;9.588;2022-09-21T00:58:16;102550.78;;;6.38;100.00
8398;BME280;4236;54.504;9.588;2022-09-21T01:00:46;102547.38;;;6.36;100.00
8398;BME280;4236;54.504;9.588;2022-09-21T01:03:13;102550.28;;;6.33;100.00
8398;BME280;4236;54.504;9.588;2022-09-21T01:05:41;102551.38;;;6.31;100.00
8398;BME280;4236;54.504;9.588;2022-09-21T01:08:09;102555.84;;;6.30;100.00
8398;BME280;4236;54.504;9.588;2022-09-21T01:10:49;102553.31;;;6.29;100.00
8398;BME280;4236;54.504;9.588;2022-09-21T01:13:30;102570.19;;;6.28;100.00
8398;BME280;4236;54.504;9.588;2022-09-21T01:16:06;102563.94;;;6.29;100.00
8398;BME280;4236;54.504;9.588;2022-09-21T01:18:42;102565.03;;;6.26;100.00
8398;BME280;4236;54.504;9.588;2022-09-21T01:21:16;102565.38;;;6.22;100.00
8398;BME280;4236;54.504;9.588;2022-09-21T01:24:01;102571.78;;;6.19;100.00
8398;BME280;4236;54.504;9.588;2022-09-21T01:26:42;102567.47;;;6.18;100.00
8398;BME280;4236;54.504;9.588;2022-09-21T01:29:19;102566.72;;;6.16;100.00
8398;BME280;4236;54.504;9.588;2022-09-21T01:31:53;102571.16;;;6.16;100.00
8398;BME280;4236;54.504;9.588;2022-09-21T01:34:28;102571.31;;;6.14;100.00
8398;BME280;4236;54.504;9.588;2022-09-21T01:37:00;102568.91;;;6.11;100.00
8398;BME280;4236;54.504;9.588;2022-09-21T01:39:30;102568.19;;;6.09;100.00
8398;BME280;4236;54.504;9.588;2022-09-21T01:42:01;102568.31;;;6.07;100.00
8398;BME280;4236;54.504;9.588;2022-09-21T01:44:34;102562.41;;;6.04;100.00
8398;BME280;4236;54.504;9.588;2022-09-21T01:47:06;102564.22;;;6.03;100.00
8398;BME280;4236;54.504;9.588;2022-09-21T01:49:37;102564.34;;;6.02;100.00
8398;BME280;4236;54.504;9.588;2022-09-21T01:52:10;102565.31;;;6.01;100.00
8398;BME280;4236;54.504;9.588;2022-09-21T01:54:44;102553.03;;;6.00;100.00
8398;BME280;4236;54.504;9.588;2022-09-21T01:57:16;102564.34;;;6.02;100.00
8398;BME280;4236;54.504;9.588;2022-09-21T01:59:50;102560.00;;;6.01;100.00
8398;BME280;4236;54.504;9.588;2022-09-21T02:02:23;102558.34;;;6.00;100.00
8398;BME280;4236;54.504;9.588;2022-09-21T02:04:53;102568.94;;;6.00;100.00
8398;BME280;4236;54.504;9.588;2022-09-21T02:07:21;102567.25;;;5.99;100.00
8398;BME280;4236;54.504;9.588;2022-09-21T02:09:48;102566.28;;;6.00;100.00
8398;BME280;4236;54.504;9.588;2022-09-21T02:12:16;102569.03;;;5.98;100.00
8398;BME280;4236;54.504;9.588;2022-09-21T02:14:45;102569.03;;;5.98;100.00
8398;BME280;4236;54.504;9.588;2022-09-21T02:17:25;102569.19;;;5.97;100.00
8398;BME280;4236;54.504;9.588;2022-09-21T02:20:03;102563.03;;;5.96;100.00
8398;BME280;4236;54.504;9.588;2022-09-21T02:22:39;102559.66;;;5.94;100.00
8398;BME280;4236;54.504;9.588;2022-09-21T02:25:10;102562.44;;;5.93;100.00
8398;BME280;4236;54.504;9.588;2022-09-21T02:27:45;102566.41;;;5.87;100.00
8398;BME280;4236;54.504;9.588;2022-09-21T02:30:17;102566.63;;;5.84;100.00
8398;BME280;4236;54.504;9.588;2022-09-21T02:32:53;102563.38;;;5.81;100.00
8398;BME280;4236;54.504;9.588;2022-09-21T02:35:30;102563.50;;;5.79;100.00
8398;BME280;4236;54.504;9.588;2022-09-21T02:38:07;102564.69;;;5.75;100.00
8398;BME280;4236;54.504;9.588;2022-09-21T02:40:39;102569.28;;;5.73;100.00
8398;BME280;4236;54.504;9.588;2022-09-21T02:43:11;102576.47;;;5.71;100.00
8398;BME280;4236;54.504;9.588;2022-09-21T02:45:50;102579.13;;;5.71;100.00
8398;BME280;4236;54.504;9.588;2022-09-21T02:48:24;102582.88;;;5.69;100.00
8398;BME280;4236;54.504;9.588;2022-09-21T02:50:56;102573.22;;;5.68;100.00
8398;BME280;4236;54.504;9.588;2022-09-21T02:53:28;102583.81;;;5.68;100.00
8398;BME280;4236;54.504;9.588;2022-09-21T02:55:58;102584.66;;;5.68;100.00
8398;BME280;4236;54.504;9.588;2022-09-21T02:58:28;102581.06;;;5.69;100.00
8398;BME280;4236;54.504;9.588;2022-09-21T03:00:58;102578.53;;;5.68;100.00
8398;BME280;4236;54.504;9.588;2022-09-21T03:03:27;102576.00;;;5.66;100.00
8398;BME280;4236;54.504;9.588;2022-09-21T03:05:55;102581.41;;;5.65;100.00
8398;BME280;4236;54.504;9.588;2022-09-21T03:08:23;102576.50;;;5.60;100.00
8398;BME280;4236;54.504;9.588;2022-09-21T03:10:51;102577.56;;;5.57;100.00
8398;BME280;4236;54.504;9.588;2022-09-21T03:13:19;102569.75;;;5.56;100.00
8398;BME280;4236;54.504;9.588;2022-09-21T03:15:46;102575.03;;;5.56;100.00
8398;BME280;4236;54.504;9.588;2022-09-21T03:18:14;102581.19;;;5.56;100.00
8398;BME280;4236;54.504;9.588;2022-09-21T03:20:44;102580.31;;;5.56;100.00
8398;BME280;4236;54.504;9.588;2022-09-21T03:23:12;102582.03;;;5.57;100.00
8398;BME280;4236;54.504;9.588;2022-09-21T03:25:42;102582.97;;;5.56;100.00
8398;BME280;4236;54.504;9.588;2022-09-21T03:28:10;102583.97;;;5.55;100.00
8398;BME280;4236;54.504;9.588;2022-09-21T03:30:39;102580.56;;;5.53;100.00
8398;BME280;4236;54.504;9.588;2022-09-21T03:33:07;102578.75;;;5.53;100.00
8398;BME280;4236;54.504;9.588;2022-09-21T03:35:35;102585.16;;;5.51;100.00
8398;BME280;4236;54.504;9.588;2022-09-21T03:38:04;102581.66;;;5.50;100.00
8398;BME280;4236;54.504;9.588;2022-09-21T03:40:32;102587.91;;;5.49;100.00
8398;BME280;4236;54.504;9.588;2022-09-21T03:43:00;102585.38;;;5.48;100.00
8398;BME280;4236;54.504;9.588;2022-09-21T03:45:27;102593.44;;;5.46;100.00
8398;BME280;4236;54.504;9.588;2022-09-21T03:47:56;102589.13;;;5.45;100.00
8398;BME280;4236;54.504;9.588;2022-09-21T03:50:25;102591.75;;;5.45;100.00
8398;BME280;4236;54.504;9.588;2022-09-21T03:52:53;102599.94;;;5.42;100.00
8398;BME280;4236;54.504;9.588;2022-09-21T03:55:23;102598.22;;;5.41;100.00
8398;BME280;4236;54.504;9.588;2022-09-21T03:57:51;102588.72;;;5.39;100.00
8398;BME280;4236;54.504;9.588;2022-09-21T04:00:18;102602.91;;;5.38;100.00
8398;BME280;4236;54.504;9.588;2022-09-21T04:02:46;102600.41;;;5.36;100.00
8398;BME280;4236;54.504;9.588;2022-09-21T04:05:15;102610.13;;;5.36;100.00
8398;BME280;4236;54.504;9.588;2022-09-21T04:07:43;102607.72;;;5.33;100.00
8398;BME280;4236;54.504;9.588;2022-09-21T04:10:13;102605.31;;;5.30;100.00
8398;BME280;4236;54.504;9.588;2022-09-21T04:12:43;102607.25;;;5.28;100.00
8398;BME280;4236;54.504;9.588;2022-09-21T04:15:12;102596.91;;;5.25;100.00
8398;BME280;4236;54.504;9.588;2022-09-21T04:17:40;102604.94;;;5.23;100.00
8398;BME280;4236;54.504;9.588;2022-09-21T04:20:08;102595.56;;;5.19;100.00
8398;BME280;4236;54.504;9.588;2022-09-21T04:22:36;102598.31;;;5.18;100.00
8398;BME280;4236;54.504;9.588;2022-09-21T04:25:09;102600.94;;;5.18;100.00
8398;BME280;4236;54.504;9.588;2022-09-21T04:27:38;102597.47;;;5.17;100.00
8398;BME280;4236;54.504;9.588;2022-09-21T04:30:10;102593.03;;;5.18;100.00
8398;BME280;4236;54.504;9.588;2022-09-21T04:32:38;102591.22;;;5.18;100.00
8398;BME280;4236;54.504;9.588;2022-09-21T04:35:07;102591.34;;;5.17;100.00
8398;BME280;4236;54.504;9.588;2022-09-21T04:37:35;102596.75;;;5.15;100.00
8398;BME280;4236;54.504;9.588;2022-09-21T04:40:03;102595.19;;;5.13;100.00
8398;BME280;4236;54.504;9.588;2022-09-21T04:42:31;102591.81;;;5.11;100.00
8398;BME280;4236;54.504;9.588;2022-09-21T04:44:59;102593.63;;;5.10;100.00
8398;BME280;4236;54.504;9.588;2022-09-21T04:47:29;102593.72;;;5.09;100.00
8398;BME280;4236;54.504;9.588;2022-09-21T04:49:57;102596.59;;;5.06;100.00
8398;BME280;4236;54.504;9.588;2022-09-21T04:52:25;102594.78;;;5.06;100.00
8398;BME280;4236;54.504;9.588;2022-09-21T04:54:52;102597.44;;;5.06;100.00
8398;BME280;4236;54.504;9.588;2022-09-21T04:57:20;102600.09;;;5.06;100.00
8398;BME280;4236;54.504;9.588;2022-09-21T04:59:47;102601.88;;;5.06;100.00
8398;BME280;4236;54.504;9.588;2022-09-21T05:02:15;102598.53;;;5.03;100.00
8398;BME280;4236;54.504;9.588;2022-09-21T05:04:44;102602.09;;;5.02;100.00
8398;BME280;4236;54.504;9.588;2022-09-21T05:07:16;102605.72;;;5.01;100.00
8398;BME280;4236;54.504;9.588;2022-09-21T05:09:44;102607.53;;;5.01;100.00
8398;BME280;4236;54.504;9.588;2022-09-21T05:12:29;102603.09;;;5.01;100.00
8398;BME280;4236;54.504;9.588;2022-09-21T05:14:57;102607.31;;;5.04;100.00
8398;BME280;4236;54.504;9.588;2022-09-21T05:17:25;102609.59;;;5.09;100.00
8398;BME280;4236;54.504;9.588;2022-09-21T05:19:54;102617.28;;;5.12;100.00
8398;BME280;4236;54.504;9.588;2022-09-21T05:22:22;102617.06;;;5.15;100.00
8398;BME280;4236;54.504;9.588;2022-09-21T05:24:50;102607.22;;;5.17;100.00
8398;BME280;4236;54.504;9.588;2022-09-21T05:27:17;102615.97;;;5.17;100.00
8398;BME280;4236;54.504;9.588;2022-09-21T05:29:45;102613.00;;;5.22;100.00
8398;BME280;4236;54.504;9.588;2022-09-21T05:32:18;102620.50;;;5.50;100.00
8398;BME280;4236;54.504;9.588;2022-09-21T05:34:55;102610.31;;;6.23;100.00
8398;BME280;4236;54.504;9.588;2022-09-21T05:37:39;102612.53;;;7.13;100.00
8398;BME280;4236;54.504;9.588;2022-09-21T05:40:11;102616.78;;;7.97;100.00
8398;BME280;4236;54.504;9.588;2022-09-21T05:42:39;102612.75;;;8.71;100.00
8398;BME280;4236;54.504;9.588;2022-09-21T05:45:12;102617.16;;;9.48;100.00
8398;BME280;4236;54.504;9.588;2022-09-21T05:47:48;102607.81;;;10.17;100.00
8398;BME280;4236;54.504;9.588;2022-09-21T05:50:45;102613.53;;;10.85;100.00
8398;BME280;4236;54.504;9.588;2022-09-21T05:53:26;102614.16;;;11.40;100.00
8398;BME280;4236;54.504;9.588;2022-09-21T05:55:57;102611.16;;;11.94;100.00
8398;BME280;4236;54.504;9.588;2022-09-21T05:58:31;102607.31;;;12.39;100.00
8398;BME280;4236;54.504;9.588;2022-09-21T06:01:13;102611.91;;;12.95;100.00
8398;BME280;4236;54.504;9.588;2022-09-21T06:03:45;102607.41;;;13.44;100.00
8398;BME280;4236;54.504;9.588;2022-09-21T06:06:16;102606.78;;;13.89;100.00
8398;BME280;4236;54.504;9.588;2022-09-21T06:08:44;102611.31;;;14.35;100.00
8398;BME280;4236;54.504;9.588;2022-09-21T06:11:12;102607.81;;;14.80;98.51
8398;BME280;4236;54.504;9.588;2022-09-21T06:13:40;102611.22;;;15.19;92.04
8398;BME280;4236;54.504;9.588;2022-09-21T06:16:08;102616.69;;;15.63;89.87
8398;BME280;4236;54.504;9.588;2022-09-21T06:18:36;102616.66;;;16.07;88.24
8398;BME280;4236;54.504;9.588;2022-09-21T06:21:05;102617.66;;;16.35;83.22
8398;BME280;4236;54.504;9.588;2022-09-21T06:23:34;102624.53;;;16.74;81.20
8398;BME280;4236;54.504;9.588;2022-09-21T06:26:02;102621.59;;;17.11;79.86
8398;BME280;4236;54.504;9.588;2022-09-21T06:28:30;102621.00;;;17.15;75.36
8398;BME280;4236;54.504;9.588;2022-09-21T06:30:58;102626.50;;;17.29;74.24
8398;BME280;4236;54.504;9.588;2022-09-21T06:33:25;102625.53;;;17.36;73.05
8398;BME280;4236;54.504;9.588;2022-09-21T06:35:55;102622.31;;;17.54;73.36
8398;BME280;4236;54.504;9.588;2022-09-21T06:38:23;102623.09;;;17.69;71.86
8398;BME280;4236;54.504;9.588;2022-09-21T06:40:52;102626.72;;;17.83;70.33
8398;BME280;4236;54.504;9.588;2022-09-21T06:43:20;102630.13;;;18.04;70.54
8398;BME280;4236;54.504;9.588;2022-09-21T06:45:52;102633.75;;;18.18;69.58
8398;BME280;4236;54.504;9.588;2022-09-21T06:48:20;102635.44;;;18.25;68.56
8398;BME280;4236;54.504;9.588;2022-09-21T06:50:48;102630.78;;;18.13;66.46
8398;BME280;4236;54.504;9.588;2022-09-21T06:53:16;102637.03;;;18.13;67.40
8398;BME280;4236;54.504;9.588;2022-09-21T06:55:43;102630.97;;;18.05;67.80
8398;BME280;4236;54.504;9.588;2022-09-21T06:58:12;102634.81;;;17.89;67.71
8398;BME280;4236;54.504;9.588;2022-09-21T07:00:40;102642.53;;;17.58;66.94
8398;BME280;4236;54.504;9.588;2022-09-21T07:03:09;102642.94;;;17.34;68.53
8398;BME280;4236;54.504;9.588;2022-09-21T07:05:37;102633.97;;;17.05;69.70
8398;BME280;4236;54.504;9.588;2022-09-21T07:08:05;102639.38;;;16.84;71.01
8398;BME280;4236;54.504;9.588;2022-09-21T07:10:53;102641.75;;;16.58;71.89
8398;BME280;4236;54.504;9.588;2022-09-21T07:13:25;102645.97;;;16.31;72.25
8398;BME280;4236;54.504;9.588;2022-09-21T07:15:53;102646.66;;;15.89;71.96
8398;BME280;4236;54.504;9.588;2022-09-21T07:18:21;102648.84;;;15.57;72.70
8398;BME280;4236;54.504;9.588;2022-09-21T07:20:49;102647.03;;;15.34;74.69
8398;BME280;4236;54.504;9.588;2022-09-21T07:23:18;102642.19;;;15.30;77.44
8398;BME280;4236;54.504;9.588;2022-09-21T07:25:48;102648.78;;;15.42;80.04
8398;BME280;4236;54.504;9.588;2022-09-21T07:28:18;102652.75;;;15.54;81.26
8398;BME280;4236;54.504;9.588;2022-09-21T07:30:47;102652.84;;;15.61;80.85
8398;BME280;4236;54.504;9.588;2022-09-21T07:33:15;102649.91;;;15.70;82.11
8398;BME280;4236;54.504;9.588;2022-09-21T07:35:49;102647.69;;;16.03;83.09
8398;BME280;4236;54.504;9.588;2022-09-21T07:38:17;102656.00;;;16.37;82.78
8398;BME280;4236;54.504;9.588;2022-09-21T07:40:44;102653.72;;;16.70;81.50
8398;BME280;4236;54.504;9.588;2022-09-21T07:43:12;102656.13;;;17.01;81.70
8398;BME280;4236;54.504;9.588;2022-09-21T07:45:40;102657.66;;;17.10;79.53
8398;BME280;4236;54.504;9.588;2022-09-21T07:48:09;102658.56;;;17.17;78.24
8398;BME280;4236;54.504;9.588;2022-09-21T07:50:36;102660.34;;;16.89;74.63
8398;BME280;4236;54.504;9.588;2022-09-21T07:53:04;102656.06;;;16.58;73.76
8398;BME280;4236;54.504;9.588;2022-09-21T07:55:31;102654.34;;;16.36;75.64
8398;BME280;4236;54.504;9.588;2022-09-21T07:57:59;102660.88;;;16.13;76.74
8398;BME280;4236;54.504;9.588;2022-09-21T08:00:44;102660.09;;;15.89;76.64
8398;BME280;4236;54.504;9.588;2022-09-21T08:03:13;102667.53;;;15.73;79.19
8398;BME280;4236;54.504;9.588;2022-09-21T08:05:40;102665.19;;;15.70;82.28
8398;BME280;4236;54.504;9.588;2022-09-21T08:08:08;102664.13;;;15.56;81.94
8398;BME280;4236;54.504;9.588;2022-09-21T08:10:36;102663.22;;;15.49;82.96
8398;BME280;4236;54.504;9.588;2022-09-21T08:13:04;102666.69;;;15.35;82.67
8398;BME280;4236;54.504;9.588;2022-09-21T08:15:32;102670.47;;;15.26;84.08
8398;BME280;4236;54.504;9.588;2022-09-21T08:18:16;102669.63;;;15.25;85.83
8398;BME280;4236;54.504;9.588;2022-09-21T08:20:52;102667.31;;;15.14;85.29
8398;BME280;4236;54.504;9.588;2022-09-21T08:23:19;102669.13;;;15.22;87.33
8398;BME280;4236;54.504;9.588;2022-09-21T08:25:47;102667.69;;;15.34;87.60
8398;BME280;4236;54.504;9.588;2022-09-21T08:28:15;102667.81;;;15.40;86.83
8398;BME280;4236;54.504;9.588;2022-09-21T08:30:43;102672.28;;;15.48;87.64
8398;BME280;4236;54.504;9.588;2022-09-21T08:33:11;102669.19;;;15.36;87.37
8398;BME280;4236;54.504;9.588;2022-09-21T08:35:40;102674.13;;;15.47;89.81
8398;BME280;4236;54.504;9.588;2022-09-21T08:38:07;102676.84;;;15.62;88.60
8398;BME280;4236;54.504;9.588;2022-09-21T08:40:39;102677.06;;;15.61;86.34
8398;BME280;4236;54.504;9.588;2022-09-21T08:43:09;102675.75;;;15.71;85.97
8398;BME280;4236;54.504;9.588;2022-09-21T08:45:40;102676.25;;;15.89;86.53
8398;BME280;4236;54.504;9.588;2022-09-21T08:48:13;102673.38;;;15.91;83.51
8398;BME280;4236;54.504;9.588;2022-09-21T08:50:51;102674.97;;;16.00;85.88
8398;BME280;4236;54.504;9.588;2022-09-21T08:53:24;102676.25;;;15.89;83.53
8398;BME280;4236;54.504;9.588;2022-09-21T08:55:56;102673.38;;;16.05;85.51
8398;BME280;4236;54.504;9.588;2022-09-21T08:58:25;102676.63;;;16.30;86.28
8398;BME280;4236;54.504;9.588;2022-09-21T09:01:04;102674.47;;;16.40;81.72
8398;BME280;4236;54.504;9.588;2022-09-21T09:03:47;102678.53;;;16.51;81.18
8398;BME280;4236;54.504;9.588;2022-09-21T09:06:27;102673.66;;;16.54;81.48
8398;BME280;4236;54.504;9.588;2022-09-21T09:09:11;102668.34;;;16.82;82.48
8398;BME280;4236;54.504;9.588;2022-09-21T09:11:53;102672.81;;;17.11;82.01
8398;BME280;4236;54.504;9.588;2022-09-21T09:14:34;102679.84;;;17.12;76.83
8398;BME280;4236;54.504;9.588;2022-09-21T09:17:32;102677.28;;;17.04;75.06
8398;BME280;4236;54.504;9.588;2022-09-21T09:20:08;102680.16;;;17.02;78.26
8398;BME280;4236;54.504;9.588;2022-09-21T09:22:42;102675.63;;;17.24;79.18
8398;BME280;4236;54.504;9.588;2022-09-21T09:25:16;102682.06;;;17.23;73.73
8398;BME280;4236;54.504;9.588;2022-09-21T09:27:47;102673.59;;;17.26;75.30
8398;BME280;4236;54.504;9.588;2022-09-21T09:30:18;102676.91;;;17.28;74.92
8398;BME280;4236;54.504;9.588;2022-09-21T09:32:53;102678.00;;;17.34;77.18
8398;BME280;4236;54.504;9.588;2022-09-21T09:35:26;102674.78;;;17.24;71.01
8398;BME280;4236;54.504;9.588;2022-09-21T09:37:59;102675.06;;;17.35;72.98
8398;BME280;4236;54.504;9.588;2022-09-21T09:40:43;102678.97;;;17.54;74.77
8398;BME280;4236;54.504;9.588;2022-09-21T09:43:21;102670.25;;;17.73;76.14
8398;BME280;4236;54.504;9.588;2022-09-21T09:46:00;102669.97;;;17.96;74.59
8398;BME280;4236;54.504;9.588;2022-09-21T09:48:49;102669.00;;;18.10;72.97
8398;BME280;4236;54.504;9.588;2022-09-21T09:51:21;102675.72;;;18.20;71.08
8398;BME280;4236;54.504;9.588;2022-09-21T09:53:58;102668.75;;;18.39;70.25
8398;BME280;4236;54.504;9.588;2022-09-21T09:56:26;102665.88;;;18.47;68.35
8398;BME280;4236;54.504;9.588;2022-09-21T09:58:56;102660.97;;;18.70;69.68
8398;BME280;4236;54.504;9.588;2022-09-21T10:01:36;102664.09;;;18.74;67.66
8398;BME280;4236;54.504;9.588;2022-09-21T10:04:05;102664.09;;;18.74;66.05
8398;BME280;4236;54.504;9.588;2022-09-21T10:06:34;102667.25;;;18.84;66.44
8398;BME280;4236;54.504;9.588;2022-09-21T10:09:17;102662.88;;;18.83;65.58
8398;BME280;4236;54.504;9.588;2022-09-21T10:11:46;102659.31;;;18.76;63.01
8398;BME280;4236;54.504;9.588;2022-09-21T10:14:18;102662.69;;;18.78;64.15
8398;BME280;4236;54.504;9.588;2022-09-21T10:16:48;102659.38;;;18.89;63.52
8398;BME280;4236;54.504;9.588;2022-09-21T10:19:20;102662.72;;;19.04;63.09
8398;BME280;4236;54.504;9.588;2022-09-21T10:21:53;102657.31;;;19.11;63.54
8398;BME280;4236;54.504;9.588;2022-09-21T10:24:26;102658.38;;;19.23;61.23
8398;BME280;4236;54.504;9.588;2022-09-21T10:27:02;102654.81;;;19.35;61.88
8398;BME280;4236;54.504;9.588;2022-09-21T10:29:38;102652.16;;;19.55;62.32
8398;BME280;4236;54.504;9.588;2022-09-21T10:32:19;102656.06;;;19.66;60.39
8398;BME280;4236;54.504;9.588;2022-09-21T10:35:20;102654.81;;;19.75;59.14
8398;BME280;4236;54.504;9.588;2022-09-21T10:38:08;102643.56;;;19.71;55.81
8398;BME280;4236;54.504;9.588;2022-09-21T10:40:38;102643.56;;;19.78;58.87
8398;BME280;4236;54.504;9.588;2022-09-21T10:43:21;102651.50;;;19.79;52.63
8398;BME280;4236;54.504;9.588;2022-09-21T10:45:54;102645.88;;;19.28;53.42
8398;BME280;4236;54.504;9.588;2022-09-21T10:48:24;102651.88;;;18.98;54.95
8398;BME280;4236;54.504;9.588;2022-09-21T10:50:53;102638.56;;;18.83;57.06
8398;BME280;4236;54.504;9.588;2022-09-21T10:53:24;102643.75;;;18.85;58.55
8398;BME280;4236;54.504;9.588;2022-09-21T10:55:59;102646.00;;;18.68;59.98
8398;BME280;4236;54.504;9.588;2022-09-21T10:59:08;102640.16;;;18.64;60.40
8398;BME280;4236;54.504;9.588;2022-09-21T11:01:42;102635.38;;;18.53;58.26
8398;BME280;4236;54.504;9.588;2022-09-21T11:04:14;102629.84;;;18.81;57.69
8398;BME280;4236;54.504;9.588;2022-09-21T11:06:46;102627.72;;;18.70;58.20
8398;BME280;4236;54.504;9.588;2022-09-21T11:09:18;102628.31;;;18.59;58.30
8398;BME280;4236;54.504;9.588;2022-09-21T11:11:52;102635.66;;;18.98;59.38
8398;BME280;4236;54.504;9.588;2022-09-21T11:14:39;102630.91;;;19.52;58.79
8398;BME280;4236;54.504;9.588;2022-09-21T11:17:14;102633.22;;;19.55;57.18
8398;BME280;4236;54.504;9.588;2022-09-21T11:19:48;102630.28;;;19.57;53.33
8398;BME280;4236;54.504;9.588;2022-09-21T11:22:23;102629.00;;;19.00;55.25
8398;BME280;4236;54.504;9.588;2022-09-21T11:25:18;102624.91;;;19.44;57.16
8398;BME280;4236;54.504;9.588;2022-09-21T11:27:56;102622.72;;;19.85;55.92
8398;BME280;4236;54.504;9.588;2022-09-21T11:30:31;102615.34;;;20.12;54.24
8398;BME280;4236;54.504;9.588;2022-09-21T11:33:16;102615.50;;;20.23;50.96
8398;BME280;4236;54.504;9.588;2022-09-21T11:35:55;102608.44;;;20.29;52.55
8398;BME280;4236;54.504;9.588;2022-09-21T11:38:38;102616.47;;;20.49;52.62
8398;BME280;4236;54.504;9.588;2022-09-21T11:41:19;102616.06;;;20.76;49.73
8398;BME280;4236;54.504;9.588;2022-09-21T11:44:03;102617.44;;;20.92;50.74
8398;BME280;4236;54.504;9.588;2022-09-21T11:46:44;102617.19;;;20.69;50.99
8398;BME280;4236;54.504;9.588;2022-09-21T11:49:30;102616.50;;;20.42;50.58
8398;BME280;4236;54.504;9.588;2022-09-21T11:52:19;102615.03;;;20.77;48.67
8398;BME280;4236;54.504;9.588;2022-09-21T11:55:03;102611.22;;;21.16;48.47
8398;BME280;4236;54.504;9.588;2022-09-21T11:57:38;102612.16;;;21.28;48.20
8398;BME280;4236;54.504;9.588;2022-09-21T12:00:14;102612.88;;;21.42;48.48
8398;BME280;4236;54.504;9.588;2022-09-21T12:03:36;102614.94;;;21.22;46.70
8398;BME280;4236;54.504;9.588;2022-09-21T12:06:15;102612.00;;;20.92;45.08
8398;BME280;4236;54.504;9.588;2022-09-21T12:08:54;102615.13;;;20.26;47.02
8398;BME280;4236;54.504;9.588;2022-09-21T12:11:32;102615.66;;;19.84;47.94
8398;BME280;4236;54.504;9.588;2022-09-21T12:14:08;102609.69;;;19.43;49.39
8398;BME280;4236;54.504;9.588;2022-09-21T12:16:46;102611.97;;;19.26;49.33
8398;BME280;4236;54.504;9.588;2022-09-21T12:19:23;102615.28;;;18.95;51.11
8398;BME280;4236;54.504;9.588;2022-09-21T12:22:00;102606.31;;;18.75;54.58
8398;BME280;4236;54.504;9.588;2022-09-21T12:24:32;102606.28;;;18.62;55.78
8398;BME280;4236;54.504;9.588;2022-09-21T12:27:05;102610.03;;;18.67;57.09
8398;BME280;4236;54.504;9.588;2022-09-21T12:29:39;102607.94;;;18.56;54.74
8398;BME280;4236;54.504;9.588;2022-09-21T12:32:20;102609.31;;;18.46;55.95
8398;BME280;4236;54.504;9.588;2022-09-21T12:34:53;102603.47;;;18.36;57.85
8398;BME280;4236;54.504;9.588;2022-09-21T12:37:25;102604.66;;;18.20;57.78
8398;BME280;4236;54.504;9.588;2022-09-21T12:40:01;102600.03;;;18.01;57.36
8398;BME280;4236;54.504;9.588;2022-09-21T12:42:36;102611.59;;;17.88;59.07
8398;BME280;4236;54.504;9.588;2022-09-21T12:45:13;102605.09;;;17.76;60.33
8398;BME280;4236;54.504;9.588;2022-09-21T12:47:50;102601.31;;;17.71;60.95
8398;BME280;4236;54.504;9.588;2022-09-21T12:50:24;102600.72;;;17.75;60.46
8398;BME280;4236;54.504;9.588;2022-09-21T12:52:55;102598.00;;;17.75;60.98
8398;BME280;4236;54.504;9.588;2022-09-21T12:55:33;102601.34;;;17.77;62.90
8398;BME280;4236;54.504;9.588;2022-09-21T12:58:06;102594.69;;;17.73;64.90
8398;BME280;4236;54.504;9.588;2022-09-21T13:00:52;102581.84;;;17.82;65.57
8398;BME280;4236;54.504;9.588;2022-09-21T13:03:30;102595.44;;;17.95;63.92
8398;BME280;4236;54.504;9.588;2022-09-21T13:08:49;102593.69;;;17.81;63.74
8398;BME280;4236;54.504;9.588;2022-09-21T13:11:18;102593.63;;;17.67;63.05
8398;BME280;4236;54.504;9.588;2022-09-21T13:13:49;102592.97;;;17.65;63.11
8398;BME280;4236;54.504;9.588;2022-09-21T13:16:26;102596.06;;;17.62;64.60
8398;BME280;4236;54.504;9.588;2022-09-21T13:18:59;102595.13;;;17.77;66.64
8398;BME280;4236;54.504;9.588;2022-09-21T13:21:30;102587.53;;;17.93;66.11
8398;BME280;4236;54.504;9.588;2022-09-21T13:24:00;102577.88;;;18.18;65.94
8398;BME280;4236;54.504;9.588;2022-09-21T13:26:34;102578.78;;;18.39;64.92
8398;BME280;4236;54.504;9.588;2022-09-21T13:29:05;102575.28;;;18.58;63.25
8398;BME280;4236;54.504;9.588;2022-09-21T13:31:54;102575.31;;;18.71;62.87
8398;BME280;4236;54.504;9.588;2022-09-21T13:34:29;102580.97;;;18.96;62.44
8398;BME280;4236;54.504;9.588;2022-09-21T13:37:31;102584.06;;;19.06;59.14
8398;BME280;4236;54.504;9.588;2022-09-21T13:43:40;102570.13;;;18.83;58.22
8398;BME280;4236;54.504;9.588;2022-09-21T13:46:47;102577.00;;;18.92;59.98